Flight Information

DEPARTURE
FARMINGTON, NM
Elevation:
5506
Runways:
7/25 - 6704x100 - ASPH-G
5/23 - 6501x150 - ASPH-E
ATIS:
127.15
Ground:
121.7
Tower:
FARMINGTON TOWER 118.9
DESTINATION
,
Elevation:
TPA:
1000 (est.)


6270.9 NM79° True-13° Var66° HDG

Flight Plan:
(click to file on line)

1. Type
2. Aircraft Identification
3. Aircraft Type / Special Equipment
4. True Airspeed
kts
5. Departure Airport
(ICAO code)
6. Arriving Airport
(ICAO code)
7. Cruising Altitude
ft
8. Alternate Airport
(ICAO code)
9. Route of Flight
10. Remarks


00:00:00 Departure ATIS: Destination ATIS:

Clearance Limit:
Route:
Altitude: Expect in minutes
Frequency:
Transponder: (7500 Hijack / 7600 Lost Comms / 7700 Emergency)


KFMN 221353Z 10005KT 10SM BKN070 M02/M03 A3005 RMK AO2 SLP197 T10171033
Time: 2021-01-22T13:53:00Z
1611326774
Winds: 100 @ 5 kts
Visibility: 10.0 sm
Clouds (AGL): BKN 7000
Temperature: -1.7 C
Dew Point: -3.3 C
Pressure: 30.050198 in Hgbr


Notes:

Data extracted from FAA Digital Chart Supplement. Effective: 0901Z Thursday, Dec 31, 2020 to 0901Z Thursday, Jan 28, 2021
Current ATIS data is provided courtisy of PilotEdge.